sensor_id;sensor_type;location;lat;lon;timestamp;temperature;humidity
20750;DHT22;10535;50.664;4.564;2023-02-01T00:01:43;7.60;99.90
20750;DHT22;10535;50.664;4.564;2023-02-01T00:04:09;7.60;99.90
20750;DHT22;10535;50.664;4.564;2023-02-01T00:06:34;7.60;99.90
20750;DHT22;10535;50.664;4.564;2023-02-01T00:09:00;7.60;99.90
20750;DHT22;10535;50.664;4.564;2023-02-01T00:11:26;7.60;99.90
20750;DHT22;10535;50.664;4.564;2023-02-01T00:13:52;7.60;99.90
20750;DHT22;10535;50.664;4.564;2023-02-01T00:16:20;7.60;99.90
20750;DHT22;10535;50.664;4.564;2023-02-01T00:18:48;7.60;99.90
20750;DHT22;10535;50.664;4.564;2023-02-01T00:21:16;7.70;99.90
20750;DHT22;10535;50.664;4.564;2023-02-01T00:23:42;7.60;99.90
20750;DHT22;10535;50.664;4.564;2023-02-01T00:26:19;7.50;99.90
20750;DHT22;10535;50.664;4.564;2023-02-01T00:28:45;7.50;99.90
20750;DHT22;10535;50.664;4.564;2023-02-01T00:31:11;7.60;99.90
20750;DHT22;10535;50.664;4.564;2023-02-01T00:33:37;7.70;99.90
20750;DHT22;10535;50.664;4.564;2023-02-01T00:36:05;7.70;99.90
20750;DHT22;10535;50.664;4.564;2023-02-01T00:38:32;7.70;99.90
20750;DHT22;10535;50.664;4.564;2023-02-01T00:41:05;7.70;99.90
20750;DHT22;10535;50.664;4.564;2023-02-01T00:43:31;7.70;99.90
20750;DHT22;10535;50.664;4.564;2023-02-01T00:45:57;7.70;99.90
20750;DHT22;10535;50.664;4.564;2023-02-01T00:48:24;7.80;99.90
20750;DHT22;10535;50.664;4.564;2023-02-01T00:50:49;7.60;99.90
20750;DHT22;10535;50.664;4.564;2023-02-01T00:53:15;7.60;99.90
20750;DHT22;10535;50.664;4.564;2023-02-01T00:55:40;7.60;99.90
20750;DHT22;10535;50.664;4.564;2023-02-01T00:58:09;7.60;99.90
20750;DHT22;10535;50.664;4.564;2023-02-01T01:00:35;7.60;99.90
20750;DHT22;10535;50.664;4.564;2023-02-01T01:03:00;7.60;99.90
20750;DHT22;10535;50.664;4.564;2023-02-01T01:05:26;7.50;99.90
20750;DHT22;10535;50.664;4.564;2023-02-01T01:07:53;7.50;99.90
20750;DHT22;10535;50.664;4.564;2023-02-01T01:10:19;7.50;99.90
20750;DHT22;10535;50.664;4.564;2023-02-01T01:12:45;7.60;99.90
20750;DHT22;10535;50.664;4.564;2023-02-01T01:15:10;7.50;99.90
20750;DHT22;10535;50.664;4.564;2023-02-01T01:17:36;7.50;99.90
20750;DHT22;10535;50.664;4.564;2023-02-01T01:20:02;7.60;99.90
20750;DHT22;10535;50.664;4.564;2023-02-01T01:22:28;7.60;99.90
20750;DHT22;10535;50.664;4.564;2023-02-01T01:24:54;7.60;99.90
20750;DHT22;10535;50.664;4.564;2023-02-01T01:27:19;7.50;99.90
20750;DHT22;10535;50.664;4.564;2023-02-01T01:29:49;7.50;99.90
20750;DHT22;10535;50.664;4.564;2023-02-01T01:32:15;7.30;99.90
20750;DHT22;10535;50.664;4.564;2023-02-01T01:34:41;7.40;99.90
20750;DHT22;10535;50.664;4.564;2023-02-01T01:37:06;7.30;99.90
20750;DHT22;10535;50.664;4.564;2023-02-01T01:39:32;7.30;99.90
20750;DHT22;10535;50.664;4.564;2023-02-01T01:41:57;7.40;99.90
20750;DHT22;10535;50.664;4.564;2023-02-01T01:47:19;7.20;99.90
20750;DHT22;10535;50.664;4.564;2023-02-01T01:52:16;7.20;99.90
20750;DHT22;10535;50.664;4.564;2023-02-01T01:54:45;7.30;99.90
20750;DHT22;10535;50.664;4.564;2023-02-01T01:57:17;7.30;99.90
20750;DHT22;10535;50.664;4.564;2023-02-01T01:59:50;7.40;99.90
20750;DHT22;10535;50.664;4.564;2023-02-01T02:02:18;7.40;99.90
20750;DHT22;10535;50.664;4.564;2023-02-01T02:04:44;7.30;99.90
20750;DHT22;10535;50.664;4.564;2023-02-01T02:07:14;7.40;99.90
20750;DHT22;10535;50.664;4.564;2023-02-01T02:09:42;7.40;99.90
20750;DHT22;10535;50.664;4.564;2023-02-01T02:12:09;7.40;99.90
20750;DHT22;10535;50.664;4.564;2023-02-01T02:14:34;7.40;99.90
20750;DHT22;10535;50.664;4.564;2023-02-01T02:36:51;7.20;99.90
20750;DHT22;10535;50.664;4.564;2023-02-01T02:44:47;7.30;99.90
20750;DHT22;10535;50.664;4.564;2023-02-01T02:50:05;7.30;99.90
20750;DHT22;10535;50.664;4.564;2023-02-01T02:52:59;7.30;99.90
20750;DHT22;10535;50.664;4.564;2023-02-01T02:55:46;7.30;99.90
20750;DHT22;10535;50.664;4.564;2023-02-01T02:58:12;7.30;99.90
20750;DHT22;10535;50.664;4.564;2023-02-01T03:00:57;7.40;99.90
20750;DHT22;10535;50.664;4.564;2023-02-01T03:03:42;7.40;99.90
20750;DHT22;10535;50.664;4.564;2023-02-01T03:06:27;7.40;99.90
20750;DHT22;10535;50.664;4.564;2023-02-01T03:08:55;7.40;99.90
20750;DHT22;10535;50.664;4.564;2023-02-01T03:11:23;7.40;99.90
20750;DHT22;10535;50.664;4.564;2023-02-01T03:14:10;7.50;99.90
20750;DHT22;10535;50.664;4.564;2023-02-01T03:16:46;7.30;99.90
20750;DHT22;10535;50.664;4.564;2023-02-01T03:19:23;7.20;99.90
20750;DHT22;10535;50.664;4.564;2023-02-01T03:21:59;7.30;99.90
20750;DHT22;10535;50.664;4.564;2023-02-01T03:24:45;7.30;99.90
20750;DHT22;10535;50.664;4.564;2023-02-01T03:29:51;7.10;99.90
20750;DHT22;10535;50.664;4.564;2023-02-01T03:32:18;7.00;99.90
20750;DHT22;10535;50.664;4.564;2023-02-01T03:34:44;7.20;99.90
20750;DHT22;10535;50.664;4.564;2023-02-01T03:37:13;6.90;99.90
20750;DHT22;10535;50.664;4.564;2023-02-01T03:42:18;6.50;99.90
20750;DHT22;10535;50.664;4.564;2023-02-01T03:45:10;6.50;99.90
20750;DHT22;10535;50.664;4.564;2023-02-01T03:47:40;6.40;99.90
20750;DHT22;10535;50.664;4.564;2023-02-01T03:50:10;6.60;99.90
20750;DHT22;10535;50.664;4.564;2023-02-01T03:52:55;6.40;99.90
20750;DHT22;10535;50.664;4.564;2023-02-01T03:55:23;6.50;99.90
20750;DHT22;10535;50.664;4.564;2023-02-01T04:00:25;6.30;99.90
20750;DHT22;10535;50.664;4.564;2023-02-01T04:02:51;6.30;99.90
20750;DHT22;10535;50.664;4.564;2023-02-01T04:05:17;6.30;99.90
20750;DHT22;10535;50.664;4.564;2023-02-01T04:07:43;6.30;99.90
20750;DHT22;10535;50.664;4.564;2023-02-01T04:10:10;6.20;99.90
20750;DHT22;10535;50.664;4.564;2023-02-01T04:12:35;6.30;99.90
20750;DHT22;10535;50.664;4.564;2023-02-01T04:15:01;6.20;99.90
20750;DHT22;10535;50.664;4.564;2023-02-01T04:17:27;6.20;99.90
20750;DHT22;10535;50.664;4.564;2023-02-01T04:19:53;6.20;99.90
20750;DHT22;10535;50.664;4.564;2023-02-01T04:22:18;6.00;99.90
20750;DHT22;10535;50.664;4.564;2023-02-01T04:24:44;5.90;99.90
20750;DHT22;10535;50.664;4.564;2023-02-01T04:27:09;6.00;99.90
20750;DHT22;10535;50.664;4.564;2023-02-01T04:29:35;6.00;99.90
20750;DHT22;10535;50.664;4.564;2023-02-01T04:32:00;5.90;99.90
20750;DHT22;10535;50.664;4.564;2023-02-01T04:34:26;5.90;99.90
20750;DHT22;10535;50.664;4.564;2023-02-01T04:36:52;5.90;99.90
20750;DHT22;10535;50.664;4.564;2023-02-01T04:39:17;5.60;99.90
20750;DHT22;10535;50.664;4.564;2023-02-01T04:41:43;5.70;99.90
20750;DHT22;10535;50.664;4.564;2023-02-01T04:44:18;5.60;99.90
20750;DHT22;10535;50.664;4.564;2023-02-01T04:46:46;5.60;99.90
20750;DHT22;10535;50.664;4.564;2023-02-01T04:49:13;5.60;99.90
20750;DHT22;10535;50.664;4.564;2023-02-01T04:51:40;5.50;99.90
20750;DHT22;10535;50.664;4.564;2023-02-01T04:54:06;5.60;99.90
20750;DHT22;10535;50.664;4.564;2023-02-01T04:56:31;5.50;99.90
20750;DHT22;10535;50.664;4.564;2023-02-01T04:58:57;5.50;99.90
20750;DHT22;10535;50.664;4.564;2023-02-01T05:01:23;5.40;99.90
20750;DHT22;10535;50.664;4.564;2023-02-01T05:03:50;5.50;99.90
20750;DHT22;10535;50.664;4.564;2023-02-01T05:06:16;5.40;99.90
20750;DHT22;10535;50.664;4.564;2023-02-01T05:08:42;5.50;99.90
20750;DHT22;10535;50.664;4.564;2023-02-01T05:11:07;5.40;99.90
20750;DHT22;10535;50.664;4.564;2023-02-01T05:13:53;5.30;99.90
20750;DHT22;10535;50.664;4.564;2023-02-01T05:16:18;5.20;99.90
20750;DHT22;10535;50.664;4.564;2023-02-01T05:18:44;5.30;99.90
20750;DHT22;10535;50.664;4.564;2023-02-01T05:21:10;5.40;99.90
20750;DHT22;10535;50.664;4.564;2023-02-01T05:23:35;5.10;99.90
20750;DHT22;10535;50.664;4.564;2023-02-01T05:26:19;5.20;99.90
20750;DHT22;10535;50.664;4.564;2023-02-01T05:28:45;5.40;99.90
20750;DHT22;10535;50.664;4.564;2023-02-01T05:31:11;5.40;99.90
20750;DHT22;10535;50.664;4.564;2023-02-01T05:33:37;5.20;99.90
20750;DHT22;10535;50.664;4.564;2023-02-01T05:36:03;5.30;99.90
20750;DHT22;10535;50.664;4.564;2023-02-01T05:38:28;5.20;99.90
20750;DHT22;10535;50.664;4.564;2023-02-01T05:40:55;5.10;99.90
20750;DHT22;10535;50.664;4.564;2023-02-01T05:43:21;5.00;99.90
20750;DHT22;10535;50.664;4.564;2023-02-01T05:45:47;5.20;99.90
20750;DHT22;10535;50.664;4.564;2023-02-01T05:48:12;5.00;99.90
20750;DHT22;10535;50.664;4.564;2023-02-01T05:50:38;5.00;99.90
20750;DHT22;10535;50.664;4.564;2023-02-01T05:53:03;5.00;99.90
20750;DHT22;10535;50.664;4.564;2023-02-01T05:55:29;5.10;99.90
20750;DHT22;10535;50.664;4.564;2023-02-01T05:57:55;5.00;99.90
20750;DHT22;10535;50.664;4.564;2023-02-01T06:00:21;5.00;99.90
20750;DHT22;10535;50.664;4.564;2023-02-01T06:02:46;4.80;99.90
20750;DHT22;10535;50.664;4.564;2023-02-01T06:05:12;4.90;99.90
20750;DHT22;10535;50.664;4.564;2023-02-01T06:07:37;4.80;99.90
20750;DHT22;10535;50.664;4.564;2023-02-01T06:10:03;4.80;99.90
20750;DHT22;10535;50.664;4.564;2023-02-01T06:12:30;4.80;99.90
20750;DHT22;10535;50.664;4.564;2023-02-01T06:14:55;4.80;99.90
20750;DHT22;10535;50.664;4.564;2023-02-01T06:17:21;4.80;99.90
20750;DHT22;10535;50.664;4.564;2023-02-01T06:19:46;4.70;99.90
20750;DHT22;10535;50.664;4.564;2023-02-01T06:22:13;4.80;99.90
20750;DHT22;10535;50.664;4.564;2023-02-01T06:24:39;4.60;99.90
20750;DHT22;10535;50.664;4.564;2023-02-01T06:27:06;4.70;99.90
20750;DHT22;10535;50.664;4.564;2023-02-01T06:29:32;4.70;99.90
20750;DHT22;10535;50.664;4.564;2023-02-01T06:31:58;4.70;99.90
20750;DHT22;10535;50.664;4.564;2023-02-01T06:34:24;4.60;99.90
20750;DHT22;10535;50.664;4.564;2023-02-01T06:36:50;4.60;99.90
20750;DHT22;10535;50.664;4.564;2023-02-01T06:39:15;4.60;99.90
20750;DHT22;10535;50.664;4.564;2023-02-01T06:41:42;4.70;99.90
20750;DHT22;10535;50.664;4.564;2023-02-01T06:44:10;4.60;99.90
20750;DHT22;10535;50.664;4.564;2023-02-01T06:46:36;4.60;99.90
20750;DHT22;10535;50.664;4.564;2023-02-01T06:49:02;4.70;99.90
20750;DHT22;10535;50.664;4.564;2023-02-01T06:51:27;4.70;99.90
20750;DHT22;10535;50.664;4.564;2023-02-01T06:53:54;4.70;99.90
20750;DHT22;10535;50.664;4.564;2023-02-01T06:56:20;4.60;99.90
20750;DHT22;10535;50.664;4.564;2023-02-01T06:58:47;4.70;99.90
20750;DHT22;10535;50.664;4.564;2023-02-01T07:01:13;4.60;99.90
20750;DHT22;10535;50.664;4.564;2023-02-01T07:03:39;4.70;99.90
20750;DHT22;10535;50.664;4.564;2023-02-01T07:06:05;4.60;99.90
20750;DHT22;10535;50.664;4.564;2023-02-01T07:08:33;4.60;99.90
20750;DHT22;10535;50.664;4.564;2023-02-01T07:11:08;4.70;99.90
20750;DHT22;10535;50.664;4.564;2023-02-01T07:13:34;4.60;99.90
20750;DHT22;10535;50.664;4.564;2023-02-01T07:16:01;4.80;99.90
20750;DHT22;10535;50.664;4.564;2023-02-01T07:18:29;4.70;99.90
20750;DHT22;10535;50.664;4.564;2023-02-01T07:20:55;4.60;99.90
20750;DHT22;10535;50.664;4.564;2023-02-01T07:23:22;4.60;99.90
20750;DHT22;10535;50.664;4.564;2023-02-01T07:25:47;4.70;99.90
20750;DHT22;10535;50.664;4.564;2023-02-01T07:28:13;4.60;99.90
20750;DHT22;10535;50.664;4.564;2023-02-01T07:30:39;4.60;99.90
20750;DHT22;10535;50.664;4.564;2023-02-01T07:33:06;4.60;99.90
20750;DHT22;10535;50.664;4.564;2023-02-01T07:35:32;4.70;99.90
20750;DHT22;10535;50.664;4.564;2023-02-01T07:37:57;4.70;99.90
20750;DHT22;10535;50.664;4.564;2023-02-01T07:40:24;4.70;99.90
20750;DHT22;10535;50.664;4.564;2023-02-01T07:42:56;4.70;99.90
20750;DHT22;10535;50.664;4.564;2023-02-01T07:45:22;4.70;99.90
20750;DHT22;10535;50.664;4.564;2023-02-01T07:47:48;4.70;99.90
20750;DHT22;10535;50.664;4.564;2023-02-01T07:50:14;4.70;99.90
20750;DHT22;10535;50.664;4.564;2023-02-01T07:52:40;4.70;99.90
20750;DHT22;10535;50.664;4.564;2023-02-01T07:55:06;4.90;99.90
20750;DHT22;10535;50.664;4.564;2023-02-01T07:57:32;4.80;99.90
20750;DHT22;10535;50.664;4.564;2023-02-01T07:59:58;4.80;99.90
20750;DHT22;10535;50.664;4.564;2023-02-01T08:02:42;5.00;99.90
20750;DHT22;10535;50.664;4.564;2023-02-01T08:05:08;5.00;99.90
20750;DHT22;10535;50.664;4.564;2023-02-01T08:07:33;5.20;99.90
20750;DHT22;10535;50.664;4.564;2023-02-01T08:09:59;5.10;99.90
20750;DHT22;10535;50.664;4.564;2023-02-01T08:12:25;5.20;99.90
20750;DHT22;10535;50.664;4.564;2023-02-01T08:14:52;5.30;99.90
20750;DHT22;10535;50.664;4.564;2023-02-01T08:17:18;5.50;99.90
20750;DHT22;10535;50.664;4.564;2023-02-01T08:19:44;5.70;99.90
20750;DHT22;10535;50.664;4.564;2023-02-01T08:22:10;5.90;99.90
20750;DHT22;10535;50.664;4.564;2023-02-01T08:24:35;6.20;99.90
20750;DHT22;10535;50.664;4.564;2023-02-01T08:27:03;6.30;99.90
20750;DHT22;10535;50.664;4.564;2023-02-01T08:29:28;6.20;99.90
20750;DHT22;10535;50.664;4.564;2023-02-01T08:31:54;6.30;99.90
20750;DHT22;10535;50.664;4.564;2023-02-01T08:34:20;6.50;99.90
20750;DHT22;10535;50.664;4.564;2023-02-01T08:36:45;6.30;99.90
20750;DHT22;10535;50.664;4.564;2023-02-01T08:39:12;6.40;99.90
20750;DHT22;10535;50.664;4.564;2023-02-01T08:41:38;6.20;99.90
20750;DHT22;10535;50.664;4.564;2023-02-01T08:44:03;6.20;99.90
20750;DHT22;10535;50.664;4.564;2023-02-01T08:46:29;6.10;99.90
20750;DHT22;10535;50.664;4.564;2023-02-01T08:48:55;6.20;99.90
20750;DHT22;10535;50.664;4.564;2023-02-01T08:51:22;6.10;99.90
20750;DHT22;10535;50.664;4.564;2023-02-01T08:53:48;6.20;99.90
20750;DHT22;10535;50.664;4.564;2023-02-01T08:56:16;6.60;99.90
20750;DHT22;10535;50.664;4.564;2023-02-01T08:58:42;6.50;99.90
20750;DHT22;10535;50.664;4.564;2023-02-01T09:01:12;6.60;99.90
20750;DHT22;10535;50.664;4.564;2023-02-01T09:03:38;6.60;99.90
20750;DHT22;10535;50.664;4.564;2023-02-01T09:06:06;6.60;99.90
20750;DHT22;10535;50.664;4.564;2023-02-01T09:08:33;6.60;99.90
20750;DHT22;10535;50.664;4.564;2023-02-01T09:11:03;6.60;99.90
20750;DHT22;10535;50.664;4.564;2023-02-01T09:13:29;6.70;99.90
20750;DHT22;10535;50.664;4.564;2023-02-01T09:15:55;6.70;99.90
20750;DHT22;10535;50.664;4.564;2023-02-01T09:18:21;6.70;99.90
20750;DHT22;10535;50.664;4.564;2023-02-01T09:20:46;6.80;99.90
20750;DHT22;10535;50.664;4.564;2023-02-01T09:23:12;6.80;99.90
20750;DHT22;10535;50.664;4.564;2023-02-01T09:25:38;6.90;99.90
20750;DHT22;10535;50.664;4.564;2023-02-01T09:28:04;6.80;99.90
20750;DHT22;10535;50.664;4.564;2023-02-01T09:30:32;6.90;99.90
20750;DHT22;10535;50.664;4.564;2023-02-01T09:32:58;6.90;99.90
20750;DHT22;10535;50.664;4.564;2023-02-01T09:35:23;7.00;99.90
20750;DHT22;10535;50.664;4.564;2023-02-01T09:37:49;7.10;99.90
20750;DHT22;10535;50.664;4.564;2023-02-01T09:40:15;7.30;99.90
20750;DHT22;10535;50.664;4.564;2023-02-01T09:45:51;7.30;99.90
20750;DHT22;10535;50.664;4.564;2023-02-01T09:48:24;7.40;99.90
20750;DHT22;10535;50.664;4.564;2023-02-01T09:50:55;7.60;99.90
20750;DHT22;10535;50.664;4.564;2023-02-01T09:53:35;7.60;99.90
20750;DHT22;10535;50.664;4.564;2023-02-01T09:56:24;7.50;99.90
20750;DHT22;10535;50.664;4.564;2023-02-01T09:59:22;7.40;99.90
20750;DHT22;10535;50.664;4.564;2023-02-01T10:01:49;7.50;99.90
20750;DHT22;10535;50.664;4.564;2023-02-01T10:04:15;7.60;99.90
20750;DHT22;10535;50.664;4.564;2023-02-01T10:06:59;7.50;99.90
20750;DHT22;10535;50.664;4.564;2023-02-01T10:10:04;7.60;99.90
20750;DHT22;10535;50.664;4.564;2023-02-01T10:18:12;7.80;99.90
20750;DHT22;10535;50.664;4.564;2023-02-01T10:23:56;7.90;99.90
20750;DHT22;10535;50.664;4.564;2023-02-01T10:26:24;7.90;99.90
20750;DHT22;10535;50.664;4.564;2023-02-01T10:28:56;8.00;99.90
20750;DHT22;10535;50.664;4.564;2023-02-01T10:31:34;7.80;99.90
20750;DHT22;10535;50.664;4.564;2023-02-01T10:34:11;7.80;99.90
20750;DHT22;10535;50.664;4.564;2023-02-01T10:36:50;7.70;99.90
20750;DHT22;10535;50.664;4.564;2023-02-01T10:39:18;7.80;99.90
20750;DHT22;10535;50.664;4.564;2023-02-01T10:41:44;7.80;99.90
20750;DHT22;10535;50.664;4.564;2023-02-01T10:44:13;7.80;99.90
20750;DHT22;10535;50.664;4.564;2023-02-01T10:46:39;7.80;99.90
20750;DHT22;10535;50.664;4.564;2023-02-01T10:49:13;8.00;99.90
20750;DHT22;10535;50.664;4.564;2023-02-01T10:51:53;8.00;99.90
20750;DHT22;10535;50.664;4.564;2023-02-01T10:54:21;8.00;99.90
20750;DHT22;10535;50.664;4.564;2023-02-01T10:56:49;8.00;99.90
20750;DHT22;10535;50.664;4.564;2023-02-01T10:59:24;8.00;99.90
20750;DHT22;10535;50.664;4.564;2023-02-01T11:02:01;8.10;99.90
20750;DHT22;10535;50.664;4.564;2023-02-01T11:04:30;8.20;99.90
20750;DHT22;10535;50.664;4.564;2023-02-01T11:07:08;8.30;99.90
20750;DHT22;10535;50.664;4.564;2023-02-01T11:09:39;8.40;99.90
20750;DHT22;10535;50.664;4.564;2023-02-01T11:12:31;8.50;99.90
20750;DHT22;10535;50.664;4.564;2023-02-01T11:17:38;8.60;99.90
20750;DHT22;10535;50.664;4.564;2023-02-01T11:20:15;8.70;99.90
20750;DHT22;10535;50.664;4.564;2023-02-01T11:22:46;8.90;99.90
20750;DHT22;10535;50.664;4.564;2023-02-01T11:25:15;9.00;99.90
20750;DHT22;10535;50.664;4.564;2023-02-01T11:27:41;9.00;99.90
20750;DHT22;10535;50.664;4.564;2023-02-01T11:30:13;9.00;99.90
20750;DHT22;10535;50.664;4.564;2023-02-01T11:32:40;9.00;99.90
20750;DHT22;10535;50.664;4.564;2023-02-01T11:35:06;8.90;99.90
20750;DHT22;10535;50.664;4.564;2023-02-01T11:37:43;9.00;99.90
20750;DHT22;10535;50.664;4.564;2023-02-01T11:42:55;9.20;99.90
20750;DHT22;10535;50.664;4.564;2023-02-01T11:45:26;9.30;99.90
20750;DHT22;10535;50.664;4.564;2023-02-01T11:47:53;9.40;99.90
20750;DHT22;10535;50.664;4.564;2023-02-01T11:50:42;9.50;99.90
20750;DHT22;10535;50.664;4.564;2023-02-01T11:53:32;9.60;99.90
20750;DHT22;10535;50.664;4.564;2023-02-01T11:56:19;9.60;99.90
20750;DHT22;10535;50.664;4.564;2023-02-01T12:01:43;9.50;99.90
20750;DHT22;10535;50.664;4.564;2023-02-01T12:04:29;9.50;99.90
20750;DHT22;10535;50.664;4.564;2023-02-01T12:07:35;9.50;99.90
20750;DHT22;10535;50.664;4.564;2023-02-01T12:35:33;9.70;99.90
20750;DHT22;10535;50.664;4.564;2023-02-01T12:38:24;9.90;99.90
20750;DHT22;10535;50.664;4.564;2023-02-01T12:41:02;9.90;99.90
20750;DHT22;10535;50.664;4.564;2023-02-01T12:43:58;10.10;99.90
20750;DHT22;10535;50.664;4.564;2023-02-01T12:46:35;10.20;99.90
20750;DHT22;10535;50.664;4.564;2023-02-01T12:49:11;10.40;99.90
20750;DHT22;10535;50.664;4.564;2023-02-01T12:51:41;10.50;99.90
20750;DHT22;10535;50.664;4.564;2023-02-01T12:54:24;10.60;99.90
20750;DHT22;10535;50.664;4.564;2023-02-01T12:56:59;10.90;99.90
20750;DHT22;10535;50.664;4.564;2023-02-01T12:59:41;10.70;99.90
20750;DHT22;10535;50.664;4.564;2023-02-01T13:05:16;10.50;99.90
20750;DHT22;10535;50.664;4.564;2023-02-01T13:08:05;10.50;99.90
20750;DHT22;10535;50.664;4.564;2023-02-01T13:11:03;10.50;99.90
20750;DHT22;10535;50.664;4.564;2023-02-01T13:13:36;10.70;99.90
20750;DHT22;10535;50.664;4.564;2023-02-01T13:18:41;10.60;99.90
20750;DHT22;10535;50.664;4.564;2023-02-01T13:21:24;10.50;99.90
20750;DHT22;10535;50.664;4.564;2023-02-01T13:23:51;10.60;99.90
20750;DHT22;10535;50.664;4.564;2023-02-01T13:26:17;10.70;99.90
20750;DHT22;10535;50.664;4.564;2023-02-01T13:28:50;10.70;99.90
20750;DHT22;10535;50.664;4.564;2023-02-01T13:31:52;10.80;99.90
20750;DHT22;10535;50.664;4.564;2023-02-01T13:34:59;10.70;99.90
20750;DHT22;10535;50.664;4.564;2023-02-01T13:43:12;10.70;99.90
20750;DHT22;10535;50.664;4.564;2023-02-01T13:45:52;10.60;99.90
20750;DHT22;10535;50.664;4.564;2023-02-01T13:48:37;10.70;99.90
20750;DHT22;10535;50.664;4.564;2023-02-01T13:51:04;10.70;99.90
20750;DHT22;10535;50.664;4.564;2023-02-01T13:53:45;10.70;99.90
20750;DHT22;10535;50.664;4.564;2023-02-01T13:56:16;10.60;99.90
20750;DHT22;10535;50.664;4.564;2023-02-01T13:58:43;10.60;99.90
20750;DHT22;10535;50.664;4.564;2023-02-01T14:09:31;10.60;99.90
20750;DHT22;10535;50.664;4.564;2023-02-01T14:11:58;10.90;99.90
20750;DHT22;10535;50.664;4.564;2023-02-01T14:14:43;11.00;99.90
20750;DHT22;10535;50.664;4.564;2023-02-01T14:19:34;11.30;99.90
20750;DHT22;10535;50.664;4.564;2023-02-01T14:24:56;11.40;99.90
20750;DHT22;10535;50.664;4.564;2023-02-01T14:27:35;11.20;99.90
20750;DHT22;10535;50.664;4.564;2023-02-01T14:30:05;10.90;99.90
20750;DHT22;10535;50.664;4.564;2023-02-01T14:32:38;10.70;99.90
20750;DHT22;10535;50.664;4.564;2023-02-01T14:35:26;10.70;99.90
20750;DHT22;10535;50.664;4.564;2023-02-01T14:38:00;10.60;99.90
20750;DHT22;10535;50.664;4.564;2023-02-01T14:40:28;10.70;99.90
20750;DHT22;10535;50.664;4.564;2023-02-01T14:42:54;10.70;99.90
20750;DHT22;10535;50.664;4.564;2023-02-01T14:58:18;10.50;99.90
20750;DHT22;10535;50.664;4.564;2023-02-01T15:00:53;10.50;99.90
20750;DHT22;10535;50.664;4.564;2023-02-01T15:06:36;10.40;99.90
20750;DHT22;10535;50.664;4.564;2023-02-01T15:09:19;10.30;99.90
20750;DHT22;10535;50.664;4.564;2023-02-01T15:12:14;10.20;99.90
20750;DHT22;10535;50.664;4.564;2023-02-01T15:14:44;10.10;99.90
20750;DHT22;10535;50.664;4.564;2023-02-01T15:17:30;10.10;99.90
20750;DHT22;10535;50.664;4.564;2023-02-01T15:22:37;10.00;99.90
20750;DHT22;10535;50.664;4.564;2023-02-01T15:25:03;10.10;99.90
20750;DHT22;10535;50.664;4.564;2023-02-01T15:27:29;9.90;99.90
20750;DHT22;10535;50.664;4.564;2023-02-01T15:30:07;9.70;99.90
20750;DHT22;10535;50.664;4.564;2023-02-01T15:32:38;9.80;99.90
20750;DHT22;10535;50.664;4.564;2023-02-01T15:35:05;9.70;99.90
20750;DHT22;10535;50.664;4.564;2023-02-01T15:37:31;9.70;99.90
20750;DHT22;10535;50.664;4.564;2023-02-01T15:42:49;9.40;99.90
20750;DHT22;10535;50.664;4.564;2023-02-01T15:45:20;9.40;99.90
20750;DHT22;10535;50.664;4.564;2023-02-01T15:47:50;9.40;99.90
20750;DHT22;10535;50.664;4.564;2023-02-01T15:50:18;9.40;99.90
20750;DHT22;10535;50.664;4.564;2023-02-01T15:52:47;9.40;99.90
20750;DHT22;10535;50.664;4.564;2023-02-01T15:57:57;9.40;99.90
20750;DHT22;10535;50.664;4.564;2023-02-01T16:00:25;9.30;99.90
20750;DHT22;10535;50.664;4.564;2023-02-01T16:02:53;9.40;99.90
20750;DHT22;10535;50.664;4.564;2023-02-01T16:07:59;9.40;99.90
20750;DHT22;10535;50.664;4.564;2023-02-01T16:10:30;9.40;99.90
20750;DHT22;10535;50.664;4.564;2023-02-01T16:12:56;9.50;99.90
20750;DHT22;10535;50.664;4.564;2023-02-01T16:15:26;9.50;99.90
20750;DHT22;10535;50.664;4.564;2023-02-01T16:17:52;9.60;99.90
20750;DHT22;10535;50.664;4.564;2023-02-01T16:20:17;9.60;99.90
20750;DHT22;10535;50.664;4.564;2023-02-01T16:22:43;9.60;99.90
20750;DHT22;10535;50.664;4.564;2023-02-01T16:25:09;9.50;99.90
20750;DHT22;10535;50.664;4.564;2023-02-01T16:27:34;9.50;99.90
20750;DHT22;10535;50.664;4.564;2023-02-01T16:30:00;9.60;99.90
20750;DHT22;10535;50.664;4.564;2023-02-01T16:32:25;9.60;99.90
20750;DHT22;10535;50.664;4.564;2023-02-01T16:34:52;9.60;99.90
20750;DHT22;10535;50.664;4.564;2023-02-01T16:37:25;9.50;99.90
20750;DHT22;10535;50.664;4.564;2023-02-01T16:39:52;9.50;99.90
20750;DHT22;10535;50.664;4.564;2023-02-01T16:42:18;9.30;99.90
20750;DHT22;10535;50.664;4.564;2023-02-01T16:44:44;9.30;99.90
20750;DHT22;10535;50.664;4.564;2023-02-01T16:47:22;9.30;99.90
20750;DHT22;10535;50.664;4.564;2023-02-01T16:49:48;9.30;99.90
20750;DHT22;10535;50.664;4.564;2023-02-01T16:52:23;9.30;99.90
20750;DHT22;10535;50.664;4.564;2023-02-01T16:54:49;9.50;99.90
20750;DHT22;10535;50.664;4.564;2023-02-01T16:57:17;9.40;99.90
20750;DHT22;10535;50.664;4.564;2023-02-01T16:59:43;9.50;99.90
20750;DHT22;10535;50.664;4.564;2023-02-01T17:02:12;9.40;99.90
20750;DHT22;10535;50.664;4.564;2023-02-01T17:04:38;9.40;99.90
20750;DHT22;10535;50.664;4.564;2023-02-01T17:07:04;9.40;99.90
20750;DHT22;10535;50.664;4.564;2023-02-01T17:09:35;9.30;99.90
20750;DHT22;10535;50.664;4.564;2023-02-01T17:12:02;9.20;99.90
20750;DHT22;10535;50.664;4.564;2023-02-01T17:14:30;9.30;99.90
20750;DHT22;10535;50.664;4.564;2023-02-01T17:16:56;9.50;99.90
20750;DHT22;10535;50.664;4.564;2023-02-01T17:19:23;9.50;99.90
20750;DHT22;10535;50.664;4.564;2023-02-01T17:21:50;9.30;99.90
20750;DHT22;10535;50.664;4.564;2023-02-01T17:24:20;9.20;99.90
20750;DHT22;10535;50.664;4.564;2023-02-01T17:26:46;9.20;99.90
20750;DHT22;10535;50.664;4.564;2023-02-01T17:29:12;9.00;99.90
20750;DHT22;10535;50.664;4.564;2023-02-01T17:31:40;9.10;99.90
20750;DHT22;10535;50.664;4.564;2023-02-01T17:34:07;9.10;99.90
20750;DHT22;10535;50.664;4.564;2023-02-01T17:36:33;9.00;99.90
20750;DHT22;10535;50.664;4.564;2023-02-01T17:39:01;9.10;99.90
20750;DHT22;10535;50.664;4.564;2023-02-01T17:41:26;9.00;99.90
20750;DHT22;10535;50.664;4.564;2023-02-01T17:43:53;9.00;99.90
20750;DHT22;10535;50.664;4.564;2023-02-01T17:46:18;9.00;99.90
20750;DHT22;10535;50.664;4.564;2023-02-01T17:48:45;8.90;99.90
20750;DHT22;10535;50.664;4.564;2023-02-01T17:51:19;8.80;99.90
20750;DHT22;10535;50.664;4.564;2023-02-01T17:53:45;8.90;99.90
20750;DHT22;10535;50.664;4.564;2023-02-01T17:56:17;8.90;99.90
20750;DHT22;10535;50.664;4.564;2023-02-01T17:58:43;8.80;99.90
20750;DHT22;10535;50.664;4.564;2023-02-01T18:01:14;9.00;99.90
20750;DHT22;10535;50.664;4.564;2023-02-01T18:03:40;8.90;99.90
20750;DHT22;10535;50.664;4.564;2023-02-01T18:06:14;8.80;99.90
20750;DHT22;10535;50.664;4.564;2023-02-01T18:08:40;8.80;99.90
20750;DHT22;10535;50.664;4.564;2023-02-01T18:11:18;8.80;99.90
20750;DHT22;10535;50.664;4.564;2023-02-01T18:13:44;8.70;99.90
20750;DHT22;10535;50.664;4.564;2023-02-01T18:16:30;8.60;99.90
20750;DHT22;10535;50.664;4.564;2023-02-01T18:18:56;8.70;99.90
20750;DHT22;10535;50.664;4.564;2023-02-01T18:21:31;8.70;99.90